createdAt,value
2023-04-18T00:00:51.269Z,178.90
2023-04-18T00:01:51.269Z,179.01
2023-04-18T00:02:51.385Z,178.21
2023-04-18T00:03:51.578Z,178.96
2023-04-18T00:04:51.457Z,178.40
2023-04-18T00:05:51.290Z,176.61
2023-04-18T00:06:51.308Z,175.58
2023-04-18T00:07:51.310Z,176.16
2023-04-18T00:08:51.326Z,173.61
2023-04-18T00:09:51.350Z,170.83
2023-04-18T00:10:51.332Z,172.09
2023-04-18T00:11:51.338Z,174.60
2023-04-18T00:12:51.345Z,172.47
2023-04-18T00:13:51.362Z,172.62
2023-04-18T00:14:51.371Z,171.02
2023-04-18T00:15:51.358Z,174.24
2023-04-18T00:16:51.452Z,171.75
2023-04-18T00:17:51.404Z,170.94
2023-04-18T00:18:51.378Z,174.40
2023-04-18T00:19:51.459Z,176.01
2023-04-18T00:20:51.407Z,176.30
2023-04-18T00:21:51.403Z,174.56
2023-04-18T00:22:51.424Z,173.75
2023-04-18T00:23:51.456Z,174.47
2023-04-18T00:24:51.452Z,177.24
2023-04-18T00:25:51.434Z,178.60
2023-04-18T00:26:51.481Z,179.39
2023-04-18T00:27:51.461Z,181.95
2023-04-18T00:28:51.486Z,183.94
2023-04-18T00:29:51.514Z,183.27
2023-04-18T00:30:51.531Z,183.59
2023-04-18T00:31:51.503Z,181.77
2023-04-18T00:32:51.578Z,183.84
2023-04-18T00:33:51.525Z,186.24
2023-04-18T00:34:51.559Z,186.25
2023-04-18T00:35:51.550Z,185.63
2023-04-18T00:36:51.568Z,187.48
2023-04-18T00:37:51.556Z,185.98
2023-04-18T00:38:51.609Z,188.74
2023-04-18T00:39:51.653Z,188.97
2023-04-18T00:40:51.710Z,189.71
2023-04-18T00:41:51.777Z,189.45
2023-04-18T00:42:51.810Z,191.61
2023-04-18T00:43:51.879Z,190.36
2023-04-18T00:44:51.944Z,189.07
2023-04-18T00:45:51.993Z,189.57
2023-04-18T00:46:51.998Z,189.86
2023-04-18T00:47:52.034Z,189.53
2023-04-18T00:48:51.958Z,188.80
2023-04-18T00:49:51.968Z,190.05
2023-04-18T00:50:51.978Z,188.86
2023-04-18T00:51:52.017Z,190.26
2023-04-18T00:52:51.984Z,190.97
2023-04-18T00:53:51.994Z,190.70
2023-04-18T00:54:52.027Z,190.64
2023-04-18T00:55:52.008Z,191.53
2023-04-18T00:56:52.028Z,191.99
2023-04-18T00:57:52.045Z,190.77
2023-04-18T00:58:52.062Z,190.62
2023-04-18T00:59:52.070Z,187.73
2023-04-18T01:00:52.083Z,187.28
2023-04-18T01:01:52.280Z,186.24
2023-04-18T01:02:52.189Z,185.13
2023-04-18T01:03:52.142Z,185.94
2023-04-18T01:04:52.098Z,187.54
2023-04-18T01:05:52.179Z,185.82
2023-04-18T01:06:52.199Z,185.84
2023-04-18T01:07:52.262Z,183.99
2023-04-18T01:08:52.249Z,182.14
2023-04-18T01:09:52.231Z,183.28
2023-04-18T01:10:52.249Z,186.17
2023-04-18T01:11:52.267Z,186.17
2023-04-18T01:12:52.265Z,188.00
2023-04-18T01:13:52.273Z,189.44
2023-04-18T01:14:52.297Z,187.44
2023-04-18T01:15:52.361Z,186.20
2023-04-18T01:16:52.298Z,188.37
2023-04-18T01:17:52.430Z,188.26
2023-04-18T01:18:52.308Z,187.86
2023-04-18T01:19:52.312Z,188.05
2023-04-18T01:20:52.368Z,186.77
2023-04-18T01:21:52.352Z,186.66
2023-04-18T01:22:52.364Z,186.53
2023-04-18T01:23:52.382Z,187.34
2023-04-18T01:24:52.380Z,186.48
2023-04-18T01:25:52.370Z,186.90
2023-04-18T01:26:52.393Z,186.58
2023-04-18T01:27:52.409Z,186.43
2023-04-18T01:28:52.444Z,187.97
2023-04-18T01:29:52.403Z,189.68
2023-04-18T01:30:52.480Z,187.33
2023-04-18T01:31:52.434Z,185.82
2023-04-18T01:32:52.476Z,187.01
2023-04-18T01:33:52.452Z,188.33
2023-04-18T01:34:52.460Z,187.13
2023-04-18T01:35:52.475Z,188.53
2023-04-18T01:36:52.492Z,190.03
2023-04-18T01:37:52.516Z,188.85
2023-04-18T01:38:52.502Z,188.67
2023-04-18T01:39:52.608Z,187.85
2023-04-18T01:40:52.533Z,191.40
2023-04-18T01:41:52.528Z,190.76
2023-04-18T01:42:52.543Z,189.97
2023-04-18T01:43:52.575Z,188.17
2023-04-18T01:44:52.587Z,187.52
2023-04-18T01:45:52.584Z,187.29
2023-04-18T01:46:52.629Z,186.91
2023-04-18T01:47:52.701Z,183.57
2023-04-18T01:48:52.628Z,185.30
2023-04-18T01:49:52.615Z,182.13
2023-04-18T01:50:52.636Z,182.48
2023-04-18T01:51:52.667Z,179.57
2023-04-18T01:52:52.645Z,182.13
2023-04-18T01:53:52.671Z,177.24
2023-04-18T01:54:52.666Z,176.79
2023-04-18T01:55:52.698Z,175.91
2023-04-18T01:56:52.702Z,175.38
2023-04-18T01:57:52.723Z,174.80
2023-04-18T01:58:52.732Z,173.48
2023-04-18T01:59:52.734Z,174.37
2023-04-18T02:00:52.858Z,176.02
2023-04-18T02:01:52.823Z,177.20
2023-04-18T02:02:52.879Z,181.08
2023-04-18T02:03:53.052Z,177.64
2023-04-18T02:04:52.770Z,175.24
2023-04-18T02:05:52.783Z,177.23
2023-04-18T02:06:52.780Z,179.61
2023-04-18T02:07:52.800Z,182.25
2023-04-18T02:08:52.820Z,181.26
2023-04-18T02:09:52.804Z,181.42
2023-04-18T02:10:52.821Z,181.78
2023-04-18T02:11:52.866Z,181.26
2023-04-18T02:12:52.849Z,182.79
2023-04-18T02:13:52.860Z,180.84
2023-04-18T02:14:52.895Z,180.48
2023-04-18T02:15:52.862Z,179.54
2023-04-18T02:16:52.970Z,180.31
2023-04-18T02:17:52.914Z,179.64
2023-04-18T02:18:52.893Z,180.46
2023-04-18T02:19:52.919Z,182.63
2023-04-18T02:20:52.927Z,181.97
2023-04-18T02:21:52.917Z,182.47
2023-04-18T02:22:52.924Z,183.12
2023-04-18T02:23:52.924Z,183.82
2023-04-18T02:24:52.938Z,182.53
2023-04-18T02:25:52.961Z,181.41
2023-04-18T02:26:52.964Z,183.59
2023-04-18T02:27:52.962Z,181.90
2023-04-18T02:28:52.972Z,184.18
2023-04-18T02:29:53.011Z,183.39
2023-04-18T02:30:53.005Z,182.08
2023-04-18T02:31:53.084Z,184.40
2023-04-18T02:32:53.106Z,186.61
2023-04-18T02:33:53.023Z,187.68
2023-04-18T02:34:53.040Z,186.90
2023-04-18T02:35:53.055Z,186.75
2023-04-18T02:36:53.058Z,188.68
2023-04-18T02:37:53.075Z,187.14
2023-04-18T02:38:53.083Z,188.82
2023-04-18T02:39:53.105Z,190.84
2023-04-18T02:40:53.113Z,190.88
2023-04-18T02:41:53.121Z,191.09
2023-04-18T02:42:53.151Z,192.08
2023-04-18T02:43:53.146Z,193.81
2023-04-18T02:44:53.142Z,194.50
2023-04-18T02:45:53.207Z,194.76
2023-04-18T02:46:53.178Z,197.47
2023-04-18T02:47:56.022Z,196.66
2023-04-18T02:48:53.188Z,200.07
2023-04-18T02:49:53.186Z,199.99
2023-04-18T02:50:53.158Z,198.53
2023-04-18T02:51:53.164Z,200.15
2023-04-18T02:52:53.171Z,200.92
2023-04-18T02:53:53.159Z,199.98
2023-04-18T02:54:53.157Z,200.09
2023-04-18T02:55:53.143Z,199.34
2023-04-18T02:56:53.118Z,197.61
2023-04-18T02:57:53.113Z,196.92
2023-04-18T02:58:53.142Z,196.44
2023-04-18T02:59:53.113Z,195.92
2023-04-18T03:00:53.131Z,196.30
2023-04-18T03:01:53.105Z,197.94
2023-04-18T03:02:53.167Z,198.88
2023-04-18T03:03:53.097Z,197.51
2023-04-18T03:04:53.146Z,195.80
2023-04-18T03:05:53.075Z,195.80
2023-04-18T03:06:53.071Z,195.89
2023-04-18T03:07:53.050Z,194.23
2023-04-18T03:08:53.041Z,195.34
2023-04-18T03:09:53.036Z,191.70
2023-04-18T03:10:54.228Z,195.55
2023-04-18T03:11:53.226Z,194.40
2023-04-18T03:12:53.210Z,192.86
2023-04-18T03:13:53.227Z,190.17
2023-04-18T03:14:53.214Z,188.31
2023-04-18T03:15:53.284Z,185.96
2023-04-18T03:16:55.423Z,184.67
2023-04-18T03:17:53.270Z,183.24
2023-04-18T03:18:53.247Z,183.93
2023-04-18T03:19:53.280Z,185.60
2023-04-18T03:20:53.285Z,186.39
2023-04-18T03:21:53.302Z,185.33
2023-04-18T03:22:53.316Z,185.82
2023-04-18T03:23:53.346Z,187.49
2023-04-18T03:24:53.320Z,187.58
2023-04-18T03:25:53.323Z,188.65
2023-04-18T03:26:53.344Z,187.10
2023-04-18T03:27:53.357Z,185.37
2023-04-18T03:28:53.373Z,187.17
2023-04-18T03:29:53.385Z,186.42
2023-04-18T03:30:53.453Z,188.74
2023-04-18T03:31:53.459Z,189.27
2023-04-18T03:32:53.587Z,192.12
2023-04-18T03:33:53.588Z,191.63
2023-04-18T03:34:53.660Z,189.93
2023-04-18T03:35:53.662Z,190.06
2023-04-18T03:36:53.664Z,189.33
2023-04-18T03:37:53.665Z,190.36
2023-04-18T03:38:53.676Z,189.26
2023-04-18T03:39:53.704Z,189.98
2023-04-18T03:40:53.715Z,187.95
2023-04-18T03:41:53.715Z,189.88
2023-04-18T03:42:53.719Z,190.23
2023-04-18T03:43:53.728Z,189.41
2023-04-18T03:44:53.742Z,187.05
2023-04-18T03:45:53.825Z,187.10
2023-04-18T03:46:53.785Z,190.51
2023-04-18T03:47:53.836Z,192.48
2023-04-18T03:48:53.799Z,190.83
2023-04-18T03:49:53.806Z,188.51
2023-04-18T03:50:53.868Z,189.96
2023-04-18T03:51:53.910Z,188.82
2023-04-18T03:52:53.982Z,188.14
2023-04-18T03:53:54.060Z,189.32
2023-04-18T03:54:54.115Z,190.66
2023-04-18T03:55:54.165Z,187.16
2023-04-18T03:56:54.232Z,188.51
2023-04-18T03:57:54.265Z,191.65
2023-04-18T03:58:54.268Z,193.39
2023-04-18T03:59:54.278Z,196.33
2023-04-18T04:00:54.289Z,194.66
2023-04-18T04:01:54.420Z,192.85
2023-04-18T04:02:54.473Z,191.85
2023-04-18T04:03:54.516Z,189.81
2023-04-18T04:04:54.398Z,189.97
2023-04-18T04:05:54.344Z,188.42
2023-04-18T04:06:54.375Z,187.94
2023-04-18T04:07:54.363Z,187.82
2023-04-18T04:08:54.386Z,187.52
2023-04-18T04:09:54.404Z,188.87
2023-04-18T04:10:54.386Z,189.14
2023-04-18T04:11:54.418Z,188.64
2023-04-18T04:12:54.417Z,187.46
2023-04-18T04:13:54.431Z,186.68
2023-04-18T04:14:54.450Z,189.87
2023-04-18T04:15:54.483Z,190.72
2023-04-18T04:16:54.481Z,190.71
2023-04-18T04:17:54.577Z,190.22
2023-04-18T04:18:54.511Z,192.17
2023-04-18T04:19:54.497Z,191.81
2023-04-18T04:20:54.517Z,191.64
2023-04-18T04:21:54.533Z,187.64
2023-04-18T04:22:54.522Z,188.17
2023-04-18T04:23:54.536Z,184.77
2023-04-18T04:24:54.573Z,183.95
2023-04-18T04:25:54.566Z,184.80
2023-04-18T04:26:54.605Z,183.73
2023-04-18T04:27:54.579Z,183.29
2023-04-18T04:28:54.610Z,185.36
2023-04-18T04:29:54.616Z,189.82
2023-04-18T04:30:54.646Z,193.07
2023-04-18T04:31:54.691Z,197.23
2023-04-18T04:32:54.739Z,200.91
2023-04-18T04:33:54.738Z,202.34
2023-04-18T04:34:54.772Z,204.05
2023-04-18T04:35:54.741Z,202.23
2023-04-18T04:36:54.757Z,201.47
2023-04-18T04:37:54.763Z,201.58
2023-04-18T04:38:54.788Z,201.56
2023-04-18T04:39:54.797Z,203.04
2023-04-18T04:40:54.806Z,203.66
2023-04-18T04:41:54.831Z,205.14
2023-04-18T04:42:54.839Z,202.12
2023-04-18T04:43:54.850Z,203.65
2023-04-18T04:44:54.867Z,206.19
2023-04-18T04:45:54.903Z,206.90
2023-04-18T04:46:54.892Z,207.26
2023-04-18T04:47:54.942Z,205.26
2023-04-18T04:48:54.899Z,206.98
2023-04-18T04:49:54.938Z,208.46
2023-04-18T04:50:54.993Z,212.48
2023-04-18T04:51:54.940Z,212.93
2023-04-18T04:52:54.978Z,212.98
2023-04-18T04:53:54.961Z,211.76
2023-04-18T04:54:55.032Z,213.26
2023-04-18T04:55:54.984Z,212.79
2023-04-18T04:56:54.996Z,211.87
2023-04-18T04:57:55.019Z,208.44
2023-04-18T04:58:55.013Z,210.72
2023-04-18T04:59:55.048Z,212.01
2023-04-18T05:00:55.176Z,213.96
2023-04-18T05:01:55.090Z,211.09
2023-04-18T05:02:55.231Z,210.70
2023-04-18T05:04:55.109Z,207.50
2023-04-18T05:05:55.094Z,207.43
2023-04-18T05:06:55.121Z,206.96
2023-04-18T05:07:55.125Z,211.35
2023-04-18T05:08:55.155Z,214.09
2023-04-18T05:09:55.141Z,214.46
2023-04-18T05:10:55.161Z,215.87
2023-04-18T05:11:55.168Z,217.80
2023-04-18T05:12:55.167Z,218.21
2023-04-18T05:13:55.195Z,216.30
2023-04-18T05:14:55.194Z,214.78
2023-04-18T05:15:55.196Z,214.82
2023-04-18T05:16:55.234Z,220.89
2023-04-18T05:17:55.242Z,227.73
2023-04-18T05:18:55.219Z,232.11
2023-04-18T05:19:55.234Z,234.81
2023-04-18T05:20:55.252Z,238.31
2023-04-18T05:21:55.252Z,239.22
2023-04-18T05:22:55.254Z,237.50
2023-04-18T05:23:55.265Z,236.81
2023-04-18T05:24:55.292Z,238.32
2023-04-18T05:25:55.297Z,243.18
2023-04-18T05:26:55.329Z,250.00
2023-04-18T05:27:55.298Z,247.45
2023-04-18T05:28:55.300Z,250.79
2023-04-18T05:29:55.291Z,249.34
2023-04-18T05:30:55.376Z,250.11
2023-04-18T05:31:55.320Z,240.67
2023-04-18T05:32:55.390Z,233.35
2023-04-18T05:33:55.394Z,236.34
2023-04-18T05:34:55.434Z,242.19
2023-04-18T05:35:55.470Z,243.75
2023-04-18T05:36:55.471Z,241.45
2023-04-18T05:37:55.540Z,236.12
2023-04-18T05:38:55.552Z,233.62
2023-04-18T05:39:55.583Z,229.02
2023-04-18T05:40:55.741Z,234.45
2023-04-18T05:41:55.721Z,244.61
2023-04-18T05:42:55.738Z,249.46
2023-04-18T05:44:04.750Z,250.00
2023-04-18T05:44:56.742Z,250.23
2023-04-18T05:45:57.643Z,251.09
2023-04-18T05:46:55.727Z,253.11
2023-04-18T05:47:55.814Z,258.50
2023-04-18T05:48:55.754Z,267.44
2023-04-18T05:49:55.710Z,260.95
2023-04-18T05:50:55.715Z,253.70
2023-04-18T05:51:55.683Z,250.00
2023-04-18T05:52:55.707Z,250.47
2023-04-18T05:53:55.716Z,249.68
2023-04-18T05:54:56.229Z,250.00
2023-04-18T05:55:55.809Z,249.94
2023-04-18T05:56:55.857Z,250.00
2023-04-18T05:57:55.916Z,249.62
2023-04-18T05:58:55.929Z,249.47
2023-04-18T05:59:55.896Z,249.17
2023-04-18T06:00:55.940Z,249.77
2023-04-18T06:01:55.953Z,249.17
2023-04-18T06:02:56.405Z,249.93
2023-04-18T06:03:56.122Z,249.95
2023-04-18T06:04:56.059Z,250.00
2023-04-18T06:05:56.105Z,249.77
2023-04-18T06:06:56.001Z,250.00
2023-04-18T06:07:56.009Z,249.41
2023-04-18T06:08:55.993Z,249.93
2023-04-18T06:09:55.981Z,249.57
2023-04-18T06:10:56.003Z,249.99
2023-04-18T06:11:56.070Z,249.61
2023-04-18T06:12:56.033Z,248.94
2023-04-18T06:13:56.215Z,248.79
2023-04-18T06:14:56.154Z,246.94
2023-04-18T06:15:56.239Z,248.56
2023-04-18T06:16:56.294Z,250.00
2023-04-18T06:17:56.342Z,250.00
2023-04-18T06:18:56.738Z,249.69
2023-04-18T06:19:56.444Z,248.28
2023-04-18T06:20:56.569Z,249.35
2023-04-18T06:21:56.569Z,249.74
2023-04-18T06:22:56.645Z,249.38
2023-04-18T06:23:56.674Z,249.33
2023-04-18T06:24:56.735Z,248.94
2023-04-18T06:25:56.794Z,248.95
2023-04-18T06:26:56.836Z,249.27
2023-04-18T06:27:56.887Z,248.57
2023-04-18T06:28:56.920Z,247.91
2023-04-18T06:29:56.984Z,245.94
2023-04-18T06:30:57.017Z,243.59
2023-04-18T06:31:57.141Z,237.20
2023-04-18T06:32:57.141Z,233.52
2023-04-18T06:33:57.166Z,214.78
2023-04-18T06:34:57.179Z,197.79
2023-04-18T06:35:57.250Z,188.66
2023-04-18T06:36:57.283Z,191.61
2023-04-18T06:37:57.310Z,196.58
2023-04-18T06:38:57.368Z,203.73
2023-04-18T06:39:57.411Z,208.28
2023-04-18T06:40:57.406Z,209.11
2023-04-18T06:41:57.431Z,213.58
2023-04-18T06:42:57.446Z,216.86
2023-04-18T06:44:57.739Z,221.99
2023-04-18T06:45:57.531Z,223.55
2023-04-18T06:46:57.456Z,220.29
2023-04-18T06:47:57.493Z,220.54
2023-04-18T06:48:57.444Z,220.79
2023-04-18T06:49:57.442Z,223.34
2023-04-18T06:50:57.423Z,227.69
2023-04-18T06:51:57.409Z,225.91
2023-04-18T06:52:57.411Z,224.20
2023-04-18T06:53:57.398Z,226.67
2023-04-18T06:54:57.406Z,226.59
2023-04-18T06:55:57.393Z,217.26
2023-04-18T06:56:57.377Z,201.22
2023-04-18T06:57:57.388Z,197.67
2023-04-18T06:58:57.732Z,191.96
2023-04-18T06:59:57.399Z,187.48
2023-04-18T07:00:57.383Z,184.57
2023-04-18T07:01:57.364Z,181.65
2023-04-18T07:02:57.539Z,177.10
2023-04-18T07:03:57.850Z,175.50
2023-04-18T07:04:57.324Z,174.33
2023-04-18T07:05:57.324Z,170.21
2023-04-18T07:06:57.325Z,164.92
2023-04-18T07:07:57.304Z,161.80
2023-04-18T07:08:57.316Z,165.18
2023-04-18T07:09:57.303Z,165.24
2023-04-18T07:10:57.748Z,161.68
2023-04-18T07:11:57.263Z,156.45
2023-04-18T07:12:57.291Z,144.90
2023-04-18T07:13:57.273Z,144.69
2023-04-18T07:14:57.267Z,155.01
2023-04-18T07:15:57.262Z,168.00
2023-04-18T07:16:57.283Z,165.28
2023-04-18T07:17:57.266Z,165.95
2023-04-18T07:18:57.233Z,162.02
2023-04-18T07:19:57.223Z,164.75
2023-04-18T07:20:57.232Z,166.38
2023-04-18T07:21:57.218Z,170.18
2023-04-18T07:22:57.224Z,170.58
2023-04-18T07:23:57.188Z,169.98
2023-04-18T07:24:57.193Z,171.20
2023-04-18T07:25:57.170Z,171.00
2023-04-18T07:26:57.205Z,153.72
2023-04-18T07:27:57.176Z,144.46
2023-04-18T07:28:57.188Z,131.65
2023-04-18T07:29:57.153Z,127.06
2023-04-18T07:30:57.298Z,121.46
2023-04-18T07:31:57.165Z,126.85
2023-04-18T07:32:57.209Z,141.36
2023-04-18T07:33:57.261Z,148.36
2023-04-18T07:34:57.122Z,156.90
2023-04-18T07:35:57.239Z,158.98
2023-04-18T07:36:57.117Z,168.64
2023-04-18T07:37:57.104Z,179.23
2023-04-18T07:38:57.099Z,187.67
2023-04-18T07:39:57.123Z,192.77
2023-04-18T07:40:57.243Z,197.69
2023-04-18T07:41:57.080Z,201.97
2023-04-18T07:42:57.074Z,206.82
2023-04-18T07:43:57.266Z,213.41
2023-04-18T07:44:57.079Z,216.25
2023-04-18T07:45:57.167Z,218.11
2023-04-18T07:46:57.053Z,216.48
2023-04-18T07:47:57.101Z,216.70
2023-04-18T07:48:57.249Z,214.36
2023-04-18T07:49:57.061Z,215.83
2023-04-18T07:50:57.128Z,215.60
2023-04-18T07:51:57.168Z,215.88
2023-04-18T07:52:57.201Z,216.54
2023-04-18T07:53:57.236Z,217.62
2023-04-18T07:54:57.270Z,218.17
2023-04-18T07:55:57.265Z,219.71
2023-04-18T07:56:57.340Z,220.40
2023-04-18T07:57:57.379Z,221.83
2023-04-18T07:58:57.443Z,223.33
2023-04-18T07:59:57.525Z,224.95
2023-04-18T08:00:57.580Z,224.29
2023-04-18T08:01:57.584Z,225.77
2023-04-18T08:02:57.744Z,227.73
2023-04-18T08:03:57.674Z,228.10
2023-04-18T08:04:57.912Z,228.92
2023-04-18T08:05:57.663Z,229.48
2023-04-18T08:06:57.709Z,230.68
2023-04-18T08:07:57.727Z,230.29
2023-04-18T08:08:57.706Z,230.83
2023-04-18T08:09:57.727Z,230.68
2023-04-18T08:10:57.719Z,229.01
2023-04-18T08:11:57.710Z,226.02
2023-04-18T08:12:57.728Z,228.00
2023-04-18T08:13:57.776Z,229.53
2023-04-18T08:14:57.783Z,230.06
2023-04-18T08:15:57.817Z,231.42
2023-04-18T08:16:57.837Z,232.46
2023-04-18T08:17:57.884Z,233.11
2023-04-18T08:18:57.864Z,235.72
2023-04-18T08:19:58.310Z,235.24
2023-04-18T08:20:58.265Z,234.78
2023-04-18T08:21:57.935Z,223.87
2023-04-18T08:23:06.792Z,214.82
2023-04-18T08:23:58.918Z,215.05
2023-04-18T08:25:05.176Z,216.11
2023-04-18T08:25:58.926Z,214.99
2023-04-18T08:26:57.913Z,213.38
2023-04-18T08:27:57.898Z,207.18
2023-04-18T08:28:57.888Z,206.53
2023-04-18T08:29:58.297Z,200.41
2023-04-18T08:30:57.889Z,188.49
2023-04-18T08:31:57.954Z,177.69
2023-04-18T08:32:58.012Z,171.41
2023-04-18T08:33:57.948Z,167.84
2023-04-18T08:34:57.967Z,168.12
2023-04-18T08:35:58.005Z,189.62
2023-04-18T08:36:58.035Z,192.00
2023-04-18T08:37:58.081Z,197.88
2023-04-18T08:38:58.128Z,200.59
2023-04-18T08:39:58.191Z,204.83
2023-04-18T08:40:58.205Z,208.56
2023-04-18T08:41:58.256Z,199.82
2023-04-18T08:42:58.275Z,186.29
2023-04-18T08:43:58.320Z,178.70
2023-04-18T08:44:58.349Z,172.52
2023-04-18T08:45:58.442Z,168.37
2023-04-18T08:46:58.440Z,165.96
2023-04-18T08:47:58.526Z,175.64
2023-04-18T08:48:58.552Z,182.10
2023-04-18T08:49:58.612Z,186.70
2023-04-18T08:50:58.667Z,186.73
2023-04-18T08:51:58.718Z,183.47
2023-04-18T08:52:58.762Z,179.75
2023-04-18T08:53:58.837Z,176.56
2023-04-18T08:54:58.897Z,173.81
2023-04-18T08:55:59.287Z,173.41
2023-04-18T08:56:59.007Z,170.07
2023-04-18T08:57:59.067Z,163.91
2023-04-18T08:58:59.128Z,161.17
2023-04-18T08:59:59.159Z,157.62
2023-04-18T09:00:59.267Z,154.96
2023-04-18T09:01:59.350Z,153.61
2023-04-18T09:02:59.426Z,150.33
2023-04-18T09:03:59.391Z,151.27
2023-04-18T09:04:59.437Z,148.67
2023-04-18T09:05:59.788Z,148.50
2023-04-18T09:06:59.535Z,146.52
2023-04-18T09:07:59.610Z,143.69
2023-04-18T09:08:59.603Z,136.86
2023-04-18T09:09:59.640Z,128.47
2023-04-18T09:10:59.677Z,119.73
2023-04-18T09:11:59.727Z,120.63
2023-04-18T09:12:59.764Z,130.22
2023-04-18T09:13:59.801Z,137.41
2023-04-18T09:14:59.862Z,136.47
2023-04-18T09:16:00.278Z,135.59
2023-04-18T09:17:00.076Z,142.42
2023-04-18T09:18:00.107Z,141.75
2023-04-18T09:18:59.986Z,145.69
2023-04-18T09:20:00.044Z,149.59
2023-04-18T09:21:00.037Z,149.32
2023-04-18T09:22:00.132Z,148.26
2023-04-18T09:23:00.126Z,149.17
2023-04-18T09:24:00.148Z,153.55
2023-04-18T09:25:00.315Z,160.87
2023-04-18T09:26:00.216Z,165.08
2023-04-18T09:27:00.209Z,172.99
2023-04-18T09:28:00.271Z,181.63
2023-04-18T09:29:00.305Z,183.28
2023-04-18T09:30:00.801Z,186.83
2023-04-18T09:31:00.422Z,196.70
2023-04-18T09:32:00.435Z,195.70
2023-04-18T09:33:00.511Z,200.32
2023-04-18T09:34:00.492Z,182.95
2023-04-18T09:35:01.984Z,169.61
2023-04-18T09:36:00.832Z,154.17
2023-04-18T09:37:00.559Z,174.40
2023-04-18T09:38:00.548Z,187.21
2023-04-18T09:39:00.500Z,189.94
2023-04-18T09:40:00.517Z,183.37
2023-04-18T09:41:00.489Z,187.30
2023-04-18T09:42:00.503Z,131.49
2023-04-18T09:43:00.489Z,102.93
2023-04-18T09:44:00.479Z,82.22
2023-04-18T09:45:00.494Z,89.09
2023-04-18T09:46:00.507Z,59.30
2023-04-18T09:47:00.469Z,50.54
2023-04-18T09:48:00.542Z,70.95
2023-04-18T09:49:00.445Z,95.48
2023-04-18T09:50:00.423Z,135.79
2023-04-18T09:51:00.437Z,150.49
2023-04-18T09:52:00.795Z,143.34
2023-04-18T09:53:00.426Z,157.23
2023-04-18T09:54:00.404Z,153.45
2023-04-18T09:55:00.395Z,148.25
2023-04-18T09:56:00.389Z,132.87
2023-04-18T09:57:00.400Z,110.55
2023-04-18T09:58:00.397Z,84.12
2023-04-18T09:59:00.366Z,76.58
2023-04-18T10:00:00.387Z,69.28
2023-04-18T10:01:00.826Z,78.53
2023-04-18T10:02:00.412Z,77.69
2023-04-18T10:03:00.475Z,64.14
2023-04-18T10:04:00.494Z,48.76
2023-04-18T10:05:00.433Z,45.92
2023-04-18T10:06:00.345Z,43.33
2023-04-18T10:07:00.326Z,46.26
2023-04-18T10:08:00.310Z,25.00
2023-04-18T10:09:00.306Z,30.94
2023-04-18T10:10:00.323Z,28.28
2023-04-18T10:11:00.312Z,34.18
2023-04-18T10:12:00.354Z,36.15
2023-04-18T10:13:00.298Z,36.24
2023-04-18T10:14:00.315Z,40.01
2023-04-18T10:15:00.306Z,34.87
2023-04-18T10:16:00.327Z,35.67
2023-04-18T10:17:00.280Z,33.19
2023-04-18T10:18:05.327Z,30.24
2023-04-18T10:19:01.256Z,30.55
2023-04-18T10:20:00.279Z,30.88
2023-04-18T10:21:00.275Z,31.45
2023-04-18T10:22:00.302Z,42.98
2023-04-18T10:23:00.239Z,44.62
2023-04-18T10:24:00.238Z,9.21
2023-04-18T10:25:00.221Z,0.00
2023-04-18T10:26:00.225Z,0.00
2023-04-18T10:27:00.320Z,0.00
2023-04-18T10:28:00.214Z,0.00
2023-04-18T10:29:00.217Z,0.00
2023-04-18T10:30:00.208Z,0.00
2023-04-18T10:31:00.243Z,0.00
2023-04-18T10:32:00.276Z,0.00
2023-04-18T10:33:00.259Z,0.00
2023-04-18T10:34:05.301Z,0.00
2023-04-18T10:35:01.190Z,0.00
2023-04-18T10:36:00.324Z,0.00
2023-04-18T10:37:00.184Z,0.00
2023-04-18T10:38:00.211Z,0.00
2023-04-18T10:39:00.172Z,0.00
2023-04-18T10:40:00.249Z,0.00
2023-04-18T10:41:00.334Z,0.00
2023-04-18T10:42:00.119Z,0.00
2023-04-18T10:43:00.152Z,0.00
2023-04-18T10:44:00.147Z,0.00
2023-04-18T10:45:00.160Z,1.78
2023-04-18T10:46:00.151Z,8.02
2023-04-18T10:47:00.211Z,16.94
2023-04-18T10:48:00.169Z,29.54
2023-04-18T10:49:00.822Z,38.37
2023-04-18T10:50:00.085Z,49.15
2023-04-18T10:51:00.145Z,55.00
2023-04-18T10:52:00.190Z,63.63
2023-04-18T10:53:00.235Z,72.78
2023-04-18T10:54:00.259Z,70.27
2023-04-18T10:55:00.308Z,66.65
2023-04-18T10:56:00.340Z,66.27
2023-04-18T10:57:00.339Z,73.00
2023-04-18T10:58:00.393Z,75.50
2023-04-18T10:59:00.379Z,81.91
2023-04-18T11:00:00.401Z,83.66
2023-04-18T11:01:00.463Z,84.45
2023-04-18T11:02:00.466Z,88.37
2023-04-18T11:03:00.606Z,92.00
2023-04-18T11:04:00.674Z,91.28
2023-04-18T11:05:00.454Z,95.46
2023-04-18T11:06:00.477Z,99.49
2023-04-18T11:07:00.482Z,103.37
2023-04-18T11:08:00.457Z,107.37
2023-04-18T11:09:00.472Z,114.20
2023-04-18T11:10:00.555Z,118.82
2023-04-18T11:11:00.839Z,125.20
2023-04-18T11:12:00.823Z,130.05
2023-04-18T11:13:00.492Z,134.18
2023-04-18T11:14:00.482Z,127.82
2023-04-18T11:15:00.454Z,122.75
2023-04-18T11:16:00.835Z,132.78
2023-04-18T11:17:00.541Z,130.46
2023-04-18T11:18:00.558Z,136.07
2023-04-18T11:19:00.462Z,137.23
2023-04-18T11:20:00.456Z,137.00
2023-04-18T11:21:00.473Z,137.38
2023-04-18T11:22:00.857Z,140.81
2023-04-18T11:23:00.461Z,163.32
2023-04-18T11:24:00.481Z,179.10
2023-04-18T11:25:00.492Z,186.72
2023-04-18T11:26:00.501Z,193.18
2023-04-18T11:27:00.529Z,178.56
2023-04-18T11:28:00.577Z,167.90
2023-04-18T11:29:00.568Z,168.40
2023-04-18T11:30:00.605Z,169.60
2023-04-18T11:31:00.612Z,175.27
2023-04-18T11:32:00.695Z,178.90
2023-04-18T11:33:00.716Z,180.38
2023-04-18T11:34:00.708Z,185.39
2023-04-18T11:35:00.764Z,184.97
2023-04-18T11:36:00.794Z,185.20
2023-04-18T11:37:00.844Z,187.88
2023-04-18T11:38:00.897Z,189.45
2023-04-18T11:39:00.938Z,192.15
2023-04-18T11:40:01.001Z,194.97
2023-04-18T11:41:01.070Z,197.01
2023-04-18T11:42:01.157Z,196.44
2023-04-18T11:43:01.201Z,198.45
2023-04-18T11:44:01.283Z,200.17
2023-04-18T11:45:01.305Z,202.80
2023-04-18T11:46:01.446Z,205.68
2023-04-18T11:47:01.456Z,208.33
2023-04-18T11:48:01.606Z,205.81
2023-04-18T11:49:01.591Z,205.14
2023-04-18T11:50:01.625Z,204.38
2023-04-18T11:51:01.710Z,203.53
2023-04-18T11:52:01.801Z,202.14
2023-04-18T11:53:01.839Z,204.74
2023-04-18T11:54:01.900Z,208.21
2023-04-18T11:55:01.952Z,208.21
2023-04-18T11:56:02.077Z,210.70
2023-04-18T11:57:02.142Z,208.74
2023-04-18T11:58:02.150Z,210.12
2023-04-18T11:59:02.271Z,213.89
2023-04-18T12:00:02.243Z,210.54
2023-04-18T12:01:02.282Z,212.67
2023-04-18T12:02:09.057Z,214.65
2023-04-18T12:03:03.387Z,193.27
2023-04-18T12:04:02.882Z,173.88
2023-04-18T12:05:02.612Z,172.54
2023-04-18T12:06:02.413Z,161.15
2023-04-18T12:07:02.307Z,122.47
2023-04-18T12:08:02.259Z,92.76
2023-04-18T12:09:02.234Z,88.93
2023-04-18T12:10:02.273Z,94.16
2023-04-18T12:11:02.265Z,96.95
2023-04-18T12:12:02.243Z,98.23
2023-04-18T12:13:02.287Z,90.83
2023-04-18T12:14:03.608Z,92.09
2023-04-18T12:15:02.207Z,97.48
2023-04-18T12:16:02.288Z,100.25
2023-04-18T12:17:02.199Z,103.63
2023-04-18T12:18:02.304Z,112.42
2023-04-18T12:19:02.161Z,116.72
2023-04-18T12:20:02.273Z,118.03
2023-04-18T12:21:02.272Z,125.59
2023-04-18T12:22:02.384Z,129.82
2023-04-18T12:23:02.151Z,134.30
2023-04-18T12:24:02.144Z,138.65
2023-04-18T12:25:02.236Z,157.94
2023-04-18T12:26:02.247Z,160.83
2023-04-18T12:27:02.318Z,177.14
2023-04-18T12:28:02.366Z,186.97
2023-04-18T12:29:02.433Z,193.43
2023-04-18T12:30:02.482Z,204.80
2023-04-18T12:31:02.593Z,211.54
2023-04-18T12:32:02.675Z,210.58
2023-04-18T12:33:02.764Z,209.80
2023-04-18T12:34:02.697Z,213.44